createdAt,value
2022-08-17T00:00:43.800Z,99113.72
2022-08-17T00:01:25.604Z,99110.28
2022-08-17T00:02:01.474Z,99113.50
2022-08-17T00:03:02.842Z,99105.03
2022-08-17T00:03:38.540Z,99113.22
2022-08-17T00:04:11.894Z,99107.63
2022-08-17T00:04:48.409Z,99108.19
2022-08-17T00:05:23.019Z,99109.84
2022-08-17T00:06:14.592Z,99107.31
2022-08-17T00:06:49.054Z,99112.22
2022-08-17T00:07:22.048Z,99110.16
2022-08-17T00:07:53.962Z,99110.16
2022-08-17T00:08:32.797Z,99105.06
2022-08-17T00:09:05.775Z,99115.09
2022-08-17T00:09:37.757Z,99109.28
2022-08-17T00:10:09.876Z,99112.94
2022-08-17T00:10:44.893Z,99111.56
2022-08-17T00:11:23.610Z,99111.94
2022-08-17T00:12:34.883Z,99113.91
2022-08-17T00:12:48.640Z,99112.50
2022-08-17T00:13:27.503Z,99116.03
2022-08-17T00:14:02.719Z,99112.72
2022-08-17T00:14:36.205Z,99116.34
2022-08-17T00:15:10.817Z,99112.31
2022-08-17T00:15:44.045Z,99113.22
2022-08-17T00:16:23.084Z,99113.12
2022-08-17T00:17:15.372Z,99115.50
2022-08-17T00:17:51.479Z,99116.69
2022-08-17T00:18:58.166Z,99108.00
2022-08-17T00:19:18.612Z,99116.37
2022-08-17T00:19:50.540Z,99114.12
2022-08-17T00:20:30.554Z,99111.94
2022-08-17T00:21:10.592Z,99108.81
2022-08-17T00:22:29.462Z,99110.56
2022-08-17T00:22:39.375Z,99111.06
2022-08-17T00:23:15.930Z,99105.94
2022-08-17T00:23:49.542Z,99106.03
2022-08-17T00:24:21.993Z,99113.22
2022-08-17T00:24:54.230Z,99107.31
2022-08-17T00:25:26.418Z,99103.84
2022-08-17T00:25:58.502Z,99111.53
2022-08-17T00:26:38.782Z,99114.97
2022-08-17T00:27:17.312Z,99106.41
2022-08-17T00:27:49.560Z,99111.81
2022-08-17T00:28:21.497Z,99109.00
2022-08-17T00:28:54.622Z,99109.78
2022-08-17T00:29:26.540Z,99109.19
2022-08-17T00:29:58.460Z,99106.72
2022-08-17T00:30:30.636Z,99111.56
2022-08-17T00:31:23.173Z,99110.47
2022-08-17T00:31:55.094Z,99106.81
2022-08-17T00:33:15.572Z,99106.81
2022-08-17T00:33:24.031Z,99107.31
2022-08-17T00:33:56.297Z,99100.84
2022-08-17T00:34:28.190Z,99106.63
2022-08-17T00:35:06.670Z,99102.78
2022-08-17T00:35:39.925Z,99109.37
2022-08-17T00:36:13.950Z,99108.81
2022-08-17T00:36:46.042Z,99109.37
2022-08-17T00:37:18.004Z,99110.38
2022-08-17T00:37:51.910Z,99108.50
2022-08-17T00:38:25.483Z,99113.03
2022-08-17T00:38:57.372Z,99108.22
2022-08-17T00:39:29.336Z,99106.06
2022-08-17T00:40:01.427Z,99110.56
2022-08-17T00:40:44.460Z,99113.62
2022-08-17T00:41:20.558Z,99107.72
2022-08-17T00:41:52.466Z,99115.09
2022-08-17T00:42:28.849Z,99110.28
2022-08-17T00:43:26.090Z,99106.94
2022-08-17T00:44:01.684Z,99103.69
2022-08-17T00:44:33.570Z,99111.72
2022-08-17T00:45:07.676Z,99111.25
2022-08-17T00:45:39.624Z,99103.50
2022-08-17T00:46:14.973Z,99111.63
2022-08-17T00:46:47.945Z,99104.06
2022-08-17T00:47:19.919Z,99109.28
2022-08-17T00:47:51.837Z,99103.28
2022-08-17T00:48:29.857Z,99111.72
2022-08-17T00:49:04.393Z,99108.00
2022-08-17T00:49:36.312Z,99106.41
2022-08-17T00:50:12.154Z,99112.53
2022-08-17T00:50:53.523Z,99098.44
2022-08-17T00:51:43.689Z,99105.44
2022-08-17T00:52:21.681Z,99113.28
2022-08-17T00:52:56.829Z,99101.28
2022-08-17T00:53:31.779Z,99105.03
2022-08-17T00:54:11.832Z,99111.22
2022-08-17T00:54:47.134Z,99101.28
2022-08-17T00:55:20.058Z,99108.87
2022-08-17T00:55:53.209Z,99105.34
2022-08-17T00:56:30.605Z,99110.06
2022-08-17T00:57:14.626Z,99101.50
2022-08-17T00:57:54.738Z,99103.88
2022-08-17T00:58:30.457Z,99101.59
2022-08-17T00:59:09.594Z,99105.22
2022-08-17T00:59:55.901Z,99100.25
2022-08-17T01:00:42.645Z,99113.41
2022-08-17T01:01:22.001Z,99102.47
2022-08-17T01:01:54.120Z,99112.72
2022-08-17T01:02:29.248Z,99104.66
2022-08-17T01:03:19.567Z,99103.50
2022-08-17T01:03:53.401Z,99111.75
2022-08-17T01:04:31.461Z,99114.22
2022-08-17T01:05:03.927Z,99106.63
2022-08-17T01:05:40.104Z,99112.34
2022-08-17T01:06:14.578Z,99114.28
2022-08-17T01:06:49.459Z,99116.13
2022-08-17T01:07:23.888Z,99106.53
2022-08-17T01:07:56.594Z,99113.88
2022-08-17T01:08:31.152Z,99102.88
2022-08-17T01:09:04.402Z,99109.53
2022-08-17T01:09:36.990Z,99113.47
2022-08-17T01:10:59.824Z,99113.66
2022-08-17T01:11:05.468Z,99104.06
2022-08-17T01:11:37.951Z,99112.84
2022-08-17T01:12:12.149Z,99107.38
2022-08-17T01:12:44.114Z,99108.66
2022-08-17T01:13:16.824Z,99106.47
2022-08-17T01:13:48.895Z,99103.97
2022-08-17T01:14:25.659Z,99107.56
2022-08-17T01:14:57.875Z,99113.19
2022-08-17T01:15:34.981Z,99104.56
2022-08-17T01:16:13.439Z,99108.16
2022-08-17T01:16:45.409Z,99108.34
2022-08-17T01:17:17.587Z,99111.38
2022-08-17T01:17:49.674Z,99111.38
2022-08-17T01:18:21.646Z,99110.28
2022-08-17T01:18:57.219Z,99116.31
2022-08-17T01:19:36.996Z,99109.63
2022-08-17T01:20:09.613Z,99110.34
2022-08-17T01:20:48.499Z,99110.53
2022-08-17T01:21:24.831Z,99117.63
2022-08-17T01:22:07.159Z,99119.97
2022-08-17T01:22:39.209Z,99120.38
2022-08-17T01:23:12.066Z,99122.63
2022-08-17T01:23:50.662Z,99122.72
2022-08-17T01:24:22.858Z,99117.22
2022-08-17T01:25:00.831Z,99108.47
2022-08-17T01:25:33.323Z,99118.78
2022-08-17T01:26:06.374Z,99120.06
2022-08-17T01:26:40.362Z,99115.53
2022-08-17T01:27:13.777Z,99119.75
2022-08-17T01:27:47.098Z,99118.25
2022-08-17T01:28:33.364Z,99122.25
2022-08-17T01:29:12.997Z,99113.47
2022-08-17T01:29:48.479Z,99117.72
2022-08-17T01:30:57.921Z,99120.28
2022-08-17T01:31:13.266Z,99119.50
2022-08-17T01:31:50.738Z,99117.87
2022-08-17T01:32:22.687Z,99114.41
2022-08-17T01:32:54.605Z,99114.72
2022-08-17T01:33:26.682Z,99117.50
2022-08-17T01:34:02.019Z,99119.09
2022-08-17T01:34:42.919Z,99116.53
2022-08-17T01:35:16.058Z,99115.94
2022-08-17T01:35:47.970Z,99112.19
2022-08-17T01:36:20.953Z,99110.53
2022-08-17T01:36:53.824Z,99120.28
2022-08-17T01:37:33.347Z,99117.75
2022-08-17T01:38:07.167Z,99111.06
2022-08-17T01:38:39.392Z,99114.44
2022-08-17T01:39:21.486Z,99115.81
2022-08-17T01:39:57.666Z,99120.62
2022-08-17T01:40:35.217Z,99116.28
2022-08-17T01:41:12.331Z,99118.53
2022-08-17T01:41:46.730Z,99113.97
2022-08-17T01:42:26.437Z,99112.88
2022-08-17T01:43:11.032Z,99121.94
2022-08-17T01:43:51.334Z,99119.19
2022-08-17T01:44:27.011Z,99120.47
2022-08-17T01:45:08.369Z,99120.06
2022-08-17T01:45:44.670Z,99124.50
2022-08-17T01:46:27.142Z,99122.91
2022-08-17T01:46:59.396Z,99119.38
2022-08-17T01:47:33.228Z,99119.97
2022-08-17T01:48:08.288Z,99119.19
2022-08-17T01:48:40.337Z,99122.47
2022-08-17T01:49:12.871Z,99115.19
2022-08-17T01:49:44.836Z,99119.13
2022-08-17T01:50:21.185Z,99116.69
2022-08-17T01:50:53.251Z,99118.97
2022-08-17T01:51:32.135Z,99119.97
2022-08-17T01:52:08.833Z,99125.66
2022-08-17T01:52:42.418Z,99122.00
2022-08-17T01:53:24.818Z,99125.19
2022-08-17T01:53:59.557Z,99125.19
2022-08-17T01:54:31.532Z,99128.59
2022-08-17T01:55:05.479Z,99125.13
2022-08-17T01:55:43.569Z,99130.50
2022-08-17T01:56:19.890Z,99121.06
2022-08-17T01:56:52.886Z,99130.59
2022-08-17T01:57:25.056Z,99128.44
2022-08-17T01:57:58.184Z,99129.94
2022-08-17T01:58:33.005Z,99125.94
2022-08-17T01:59:05.036Z,99121.81
2022-08-17T01:59:37.589Z,99116.75
2022-08-17T02:00:10.880Z,99117.63
2022-08-17T02:00:51.726Z,99117.63
2022-08-17T02:01:34.871Z,99120.56
2022-08-17T02:02:07.524Z,99110.38
2022-08-17T02:02:40.565Z,99117.87
2022-08-17T02:03:13.589Z,99110.22
2022-08-17T02:03:53.220Z,99118.00
2022-08-17T02:04:32.265Z,99114.28
2022-08-17T02:05:05.069Z,99112.91
2022-08-17T02:05:37.081Z,99108.91
2022-08-17T02:06:26.998Z,99111.22
2022-08-17T02:07:00.662Z,99112.84
2022-08-17T02:07:32.723Z,99110.00
2022-08-17T02:08:39.099Z,99112.16
2022-08-17T02:09:17.438Z,99111.69
2022-08-17T02:09:52.783Z,99109.37
2022-08-17T02:10:24.794Z,99117.25
2022-08-17T02:11:11.479Z,99114.16
2022-08-17T02:11:44.661Z,99113.28
2022-08-17T02:12:39.090Z,99115.66
2022-08-17T02:13:10.422Z,99110.91
2022-08-17T02:13:43.816Z,99116.94
2022-08-17T02:14:15.716Z,99113.69
2022-08-17T02:14:47.639Z,99111.81
2022-08-17T02:15:21.093Z,99114.75
2022-08-17T02:15:53.290Z,99115.19
2022-08-17T02:16:25.307Z,99115.59
2022-08-17T02:16:57.245Z,99114.59
2022-08-17T02:17:29.449Z,99112.59
2022-08-17T02:18:02.928Z,99112.84
2022-08-17T02:18:34.960Z,99116.34
2022-08-17T02:19:09.667Z,99114.09
2022-08-17T02:19:41.930Z,99119.00
2022-08-17T02:20:14.482Z,99116.69
2022-08-17T02:20:46.368Z,99115.41
2022-08-17T02:21:18.339Z,99114.41
2022-08-17T02:21:52.902Z,99110.75
2022-08-17T02:22:26.149Z,99112.47
2022-08-17T02:23:01.902Z,99118.63
2022-08-17T02:23:39.011Z,99114.47
2022-08-17T02:24:17.593Z,99112.91
2022-08-17T02:25:12.707Z,99108.16
2022-08-17T02:25:49.731Z,99113.53
2022-08-17T02:26:25.693Z,99120.41
2022-08-17T02:26:58.743Z,99113.88
2022-08-17T02:27:30.709Z,99113.84
2022-08-17T02:28:04.482Z,99115.75
2022-08-17T02:28:36.377Z,99109.66
2022-08-17T02:29:08.265Z,99111.25
2022-08-17T02:29:40.203Z,99109.94
2022-08-17T02:31:01.434Z,99108.56
2022-08-17T02:31:09.145Z,99116.25
2022-08-17T02:31:41.702Z,99105.56
2022-08-17T02:32:20.591Z,99115.69
2022-08-17T02:32:57.499Z,99117.41
2022-08-17T02:33:43.285Z,99108.75
2022-08-17T02:34:15.962Z,99107.69
2022-08-17T02:34:48.133Z,99115.06
2022-08-17T02:35:22.525Z,99113.25
2022-08-17T02:35:54.524Z,99107.38
2022-08-17T02:36:27.525Z,99113.34
2022-08-17T02:36:59.696Z,99109.66
2022-08-17T02:37:32.173Z,99111.41
2022-08-17T02:38:06.088Z,99102.31
2022-08-17T02:38:39.909Z,99116.47
2022-08-17T02:39:12.841Z,99108.09
2022-08-17T02:39:46.062Z,99110.69
2022-08-17T02:40:18.462Z,99112.81
2022-08-17T02:41:08.934Z,99118.06
2022-08-17T02:41:41.074Z,99113.47
2022-08-17T02:42:14.304Z,99119.06
2022-08-17T02:42:46.346Z,99116.09
2022-08-17T02:43:18.457Z,99110.19
2022-08-17T02:43:51.142Z,99116.03
2022-08-17T02:44:35.530Z,99111.56
2022-08-17T02:45:22.348Z,99110.31
2022-08-17T02:45:55.441Z,99112.41
2022-08-17T02:46:27.377Z,99114.12
2022-08-17T02:46:59.387Z,99114.47
2022-08-17T02:47:31.384Z,99113.81
2022-08-17T02:48:04.061Z,99109.19
2022-08-17T02:48:35.943Z,99112.59
2022-08-17T02:49:08.151Z,99113.88
2022-08-17T02:49:40.109Z,99107.56
2022-08-17T02:50:14.696Z,99107.84
2022-08-17T02:50:46.887Z,99105.25
2022-08-17T02:51:18.804Z,99104.19
2022-08-17T02:51:50.720Z,99113.38
2022-08-17T02:52:41.919Z,99111.78
2022-08-17T02:53:15.528Z,99107.63
2022-08-17T02:53:47.543Z,99110.53
2022-08-17T02:54:39.654Z,99114.28
2022-08-17T02:55:19.435Z,99110.69
2022-08-17T02:55:51.310Z,99108.75
2022-08-17T02:56:23.699Z,99114.00
2022-08-17T02:56:55.634Z,99120.28
2022-08-17T02:57:27.564Z,99112.41
2022-08-17T02:57:59.668Z,99113.91
2022-08-17T02:58:35.832Z,99114.97
2022-08-17T02:59:07.969Z,99119.00
2022-08-17T02:59:48.330Z,99111.97
2022-08-17T03:00:25.882Z,99119.00
2022-08-17T03:00:57.867Z,99121.00
2022-08-17T03:01:30.872Z,99114.06
2022-08-17T03:02:04.511Z,99115.69
2022-08-17T03:02:43.539Z,99116.22
2022-08-17T03:03:20.332Z,99113.47
2022-08-17T03:03:52.818Z,99113.91
2022-08-17T03:04:24.765Z,99120.12
2022-08-17T03:04:56.960Z,99117.41
2022-08-17T03:05:31.321Z,99112.69
2022-08-17T03:06:03.902Z,99108.53
2022-08-17T03:06:35.971Z,99113.34
2022-08-17T03:07:07.988Z,99113.84
2022-08-17T03:07:39.977Z,99111.13
2022-08-17T03:08:13.195Z,99113.84
2022-08-17T03:08:45.383Z,99114.28
2022-08-17T03:09:17.286Z,99118.00
2022-08-17T03:09:49.151Z,99110.28
2022-08-17T03:10:22.417Z,99114.12
2022-08-17T03:10:54.400Z,99114.53
2022-08-17T03:11:26.317Z,99111.41
2022-08-17T03:12:07.183Z,99120.56
2022-08-17T03:12:42.246Z,99112.16
2022-08-17T03:13:14.658Z,99120.81
2022-08-17T03:13:46.586Z,99110.41
2022-08-17T03:14:19.070Z,99117.19
2022-08-17T03:14:58.298Z,99115.69
2022-08-17T03:15:33.553Z,99117.00
2022-08-17T03:16:05.687Z,99115.34
2022-08-17T03:16:37.599Z,99114.06
2022-08-17T03:17:11.339Z,99110.44
2022-08-17T03:17:50.875Z,99122.31
2022-08-17T03:18:25.362Z,99115.06
2022-08-17T03:18:57.998Z,99111.81
2022-08-17T03:19:29.876Z,99114.75
2022-08-17T03:20:02.031Z,99112.75
2022-08-17T03:20:36.290Z,99120.19
2022-08-17T03:21:09.575Z,99123.63
2022-08-17T03:21:41.497Z,99117.00
2022-08-17T03:22:36.985Z,99126.25
2022-08-17T03:23:05.968Z,99118.56
2022-08-17T03:23:42.228Z,99128.81
2022-08-17T03:24:15.343Z,99118.41
2022-08-17T03:24:49.951Z,99124.66
2022-08-17T03:25:26.865Z,99122.66
2022-08-17T03:25:59.960Z,99122.41
2022-08-17T03:26:32.361Z,99127.16
2022-08-17T03:27:04.549Z,99130.53
2022-08-17T03:27:37.181Z,99127.03
2022-08-17T03:28:14.744Z,99127.59
2022-08-17T03:28:46.664Z,99123.09
2022-08-17T03:29:19.377Z,99127.03
2022-08-17T03:29:51.346Z,99127.81
2022-08-17T03:30:25.033Z,99124.94
2022-08-17T03:30:56.973Z,99127.59
2022-08-17T03:31:29.152Z,99129.38
2022-08-17T03:32:02.154Z,99132.91
2022-08-17T03:32:43.465Z,99128.47
2022-08-17T03:33:16.264Z,99130.59
2022-08-17T03:33:48.512Z,99131.13
2022-08-17T03:34:20.464Z,99128.66
2022-08-17T03:34:57.102Z,99129.75
2022-08-17T03:35:33.223Z,99127.59
2022-08-17T03:36:05.566Z,99125.16
2022-08-17T03:36:37.775Z,99128.50
2022-08-17T03:37:09.874Z,99129.19
2022-08-17T03:37:42.293Z,99125.03
2022-08-17T03:38:17.121Z,99128.25
2022-08-17T03:38:49.471Z,99129.19
2022-08-17T03:39:23.000Z,99134.78
2022-08-17T03:39:55.612Z,99137.16
2022-08-17T03:40:39.860Z,99135.13
2022-08-17T03:41:20.160Z,99134.38
2022-08-17T03:41:52.359Z,99134.38
2022-08-17T03:42:31.962Z,99136.28
2022-08-17T03:43:09.453Z,99139.91
2022-08-17T03:43:41.321Z,99136.50
2022-08-17T03:44:13.274Z,99144.44
2022-08-17T03:44:52.337Z,99144.44
2022-08-17T03:45:47.655Z,99144.44
2022-08-17T03:46:40.901Z,99137.69
2022-08-17T03:47:31.966Z,99147.87
2022-08-17T03:48:23.485Z,99142.00
2022-08-17T03:49:13.957Z,99145.06
2022-08-17T03:50:04.330Z,99144.84
2022-08-17T03:50:54.863Z,99150.44
2022-08-17T03:51:45.405Z,99147.28
2022-08-17T03:52:36.412Z,99151.16
2022-08-17T03:53:34.583Z,99147.56
2022-08-17T03:54:25.909Z,99143.91
2022-08-17T03:55:16.178Z,99141.88
2022-08-17T03:56:06.675Z,99151.34
2022-08-17T03:56:45.022Z,99143.44
2022-08-17T03:57:17.570Z,99139.28
2022-08-17T03:57:49.516Z,99146.16
2022-08-17T03:58:21.564Z,99149.53
2022-08-17T03:58:53.470Z,99147.16
2022-08-17T03:59:25.394Z,99148.72
2022-08-17T03:59:58.304Z,99151.44
2022-08-17T04:00:30.711Z,99150.59
2022-08-17T04:01:04.927Z,99141.44
2022-08-17T04:01:37.601Z,99154.41
2022-08-17T04:02:25.947Z,99149.25
2022-08-17T04:02:57.903Z,99148.94
2022-08-17T04:03:30.254Z,99151.25
2022-08-17T04:04:02.151Z,99149.66
2022-08-17T04:04:34.449Z,99152.81
2022-08-17T04:05:06.643Z,99148.09
2022-08-17T04:05:39.422Z,99147.44
2022-08-17T04:06:12.235Z,99150.53
2022-08-17T04:06:45.254Z,99146.72
2022-08-17T04:07:18.670Z,99156.94
2022-08-17T04:07:51.835Z,99146.41
2022-08-17T04:08:24.015Z,99149.44
2022-08-17T04:08:56.006Z,99145.13
2022-08-17T04:09:28.043Z,99155.47
2022-08-17T04:10:00.307Z,99151.78
2022-08-17T04:10:33.907Z,99155.31
2022-08-17T04:11:10.317Z,99155.91
2022-08-17T04:11:42.523Z,99154.84
2022-08-17T04:12:17.010Z,99151.34
2022-08-17T04:12:55.081Z,99161.59
2022-08-17T04:13:27.307Z,99157.09
2022-08-17T04:13:59.235Z,99157.53
2022-08-17T04:14:36.159Z,99164.50
2022-08-17T04:15:12.630Z,99156.53
2022-08-17T04:15:44.557Z,99160.69
2022-08-17T04:16:16.832Z,99163.53
2022-08-17T04:16:49.010Z,99159.47
2022-08-17T04:17:24.244Z,99159.00
2022-08-17T04:17:56.791Z,99159.91
2022-08-17T04:18:28.721Z,99161.94
2022-08-17T04:19:00.981Z,99164.88
2022-08-17T04:19:33.194Z,99158.34
2022-08-17T04:20:06.188Z,99161.06
2022-08-17T04:20:38.161Z,99164.34
2022-08-17T04:21:10.354Z,99164.97
2022-08-17T04:21:42.265Z,99163.06
2022-08-17T04:22:33.292Z,99161.72
2022-08-17T04:23:10.217Z,99161.72
2022-08-17T04:23:42.170Z,99161.13
2022-08-17T04:24:14.774Z,99162.13
2022-08-17T04:24:46.643Z,99165.84
2022-08-17T04:25:20.132Z,99164.75
2022-08-17T04:25:53.906Z,99162.13
2022-08-17T04:26:52.490Z,99163.06
2022-08-17T04:27:18.181Z,99163.69
2022-08-17T04:27:50.194Z,99167.47
2022-08-17T04:28:22.213Z,99165.50
2022-08-17T04:28:54.365Z,99164.75
2022-08-17T04:29:26.301Z,99164.56
2022-08-17T04:30:18.207Z,99167.72
2022-08-17T04:30:50.200Z,99164.47
2022-08-17T04:31:22.864Z,99170.53
2022-08-17T04:31:54.869Z,99168.69
2022-08-17T04:33:04.811Z,99165.47
2022-08-17T04:33:24.065Z,99167.06
2022-08-17T04:33:56.217Z,99170.75
2022-08-17T04:34:28.115Z,99167.31
2022-08-17T04:35:00.867Z,99166.53
2022-08-17T04:35:54.199Z,99172.34
2022-08-17T04:36:26.978Z,99167.84
2022-08-17T04:36:58.862Z,99177.19
2022-08-17T04:37:31.055Z,99168.28
2022-08-17T04:38:05.111Z,99172.03
2022-08-17T04:38:39.575Z,99168.25
2022-08-17T04:39:11.932Z,99172.94
2022-08-17T04:40:04.829Z,99168.50
2022-08-17T04:40:55.798Z,99171.88
2022-08-17T04:41:46.751Z,99168.44
2022-08-17T04:42:19.036Z,99170.22
2022-08-17T04:43:07.305Z,99172.00
2022-08-17T04:43:41.143Z,99163.19
2022-08-17T04:44:13.092Z,99167.22
2022-08-17T04:45:05.391Z,99164.19
2022-08-17T04:45:56.151Z,99169.84
2022-08-17T04:46:34.471Z,99179.03
2022-08-17T04:47:07.213Z,99175.78
2022-08-17T04:47:42.600Z,99172.00
2022-08-17T04:48:14.869Z,99178.72
2022-08-17T04:48:50.059Z,99173.13
2022-08-17T04:49:22.176Z,99170.63
2022-08-17T04:49:54.073Z,99170.13
2022-08-17T04:50:26.046Z,99174.62
2022-08-17T04:50:59.970Z,99182.00
2022-08-17T04:51:38.271Z,99184.53
2022-08-17T04:52:42.672Z,99176.50
2022-08-17T04:53:09.811Z,99172.47
2022-08-17T04:53:45.260Z,99173.84
2022-08-17T04:54:20.177Z,99175.28
2022-08-17T04:54:52.076Z,99178.19
2022-08-17T04:55:23.962Z,99179.38
2022-08-17T04:55:58.327Z,99178.56
2022-08-17T04:56:31.463Z,99178.72
2022-08-17T04:57:03.394Z,99181.88
2022-08-17T04:57:39.413Z,99180.75
2022-08-17T04:58:12.542Z,99178.00
2022-08-17T04:58:50.530Z,99182.91
2022-08-17T04:59:22.949Z,99179.19
2022-08-17T04:59:54.827Z,99181.75
2022-08-17T05:00:27.435Z,99177.41
2022-08-17T05:00:59.648Z,99181.34
2022-08-17T05:01:34.357Z,99177.63
2022-08-17T05:02:06.585Z,99181.88
2022-08-17T05:02:50.613Z,99181.50
2022-08-17T05:03:22.954Z,99184.22
2022-08-17T05:03:59.153Z,99186.22
2022-08-17T05:04:34.432Z,99191.72
2022-08-17T05:05:07.401Z,99186.31
2022-08-17T05:05:43.315Z,99185.75
2022-08-17T05:06:15.324Z,99185.16
2022-08-17T05:06:47.334Z,99180.63
2022-08-17T05:07:23.444Z,99180.50
2022-08-17T05:08:01.384Z,99188.66
2022-08-17T05:08:33.566Z,99179.63
2022-08-17T05:09:05.838Z,99185.72
2022-08-17T05:09:37.737Z,99181.50
2022-08-17T05:10:10.270Z,99186.09
2022-08-17T05:10:45.064Z,99183.56
2022-08-17T05:11:18.427Z,99180.53
2022-08-17T05:11:50.369Z,99187.34
2022-08-17T05:12:22.286Z,99192.06
2022-08-17T05:13:03.824Z,99191.09
2022-08-17T05:13:35.767Z,99186.25
2022-08-17T05:14:08.034Z,99188.28
2022-08-17T05:14:39.964Z,99189.06
2022-08-17T05:15:16.318Z,99190.00
2022-08-17T05:15:53.024Z,99190.69
2022-08-17T05:16:27.419Z,99196.09
2022-08-17T05:16:59.871Z,99196.19
2022-08-17T05:17:33.162Z,99200.00
2022-08-17T05:18:06.552Z,99188.59
2022-08-17T05:18:39.082Z,99195.78
2022-08-17T05:19:11.507Z,99196.19
2022-08-17T05:19:43.417Z,99200.78
2022-08-17T05:20:15.452Z,99192.69
2022-08-17T05:20:47.759Z,99199.91
2022-08-17T05:21:23.129Z,99192.03
2022-08-17T05:21:55.068Z,99194.31
2022-08-17T05:22:26.978Z,99199.91
2022-08-17T05:23:04.559Z,99198.25
2022-08-17T05:23:42.544Z,99202.34
2022-08-17T05:24:42.543Z,99202.66
2022-08-17T05:25:08.835Z,99197.53
2022-08-17T05:25:49.021Z,99199.09
2022-08-17T05:26:26.931Z,99204.41
2022-08-17T05:27:06.182Z,99201.75
2022-08-17T05:27:38.694Z,99207.44
2022-08-17T05:28:14.009Z,99200.50
2022-08-17T05:28:48.257Z,99207.13
2022-08-17T05:29:21.434Z,99204.34
2022-08-17T05:29:53.361Z,99200.66
2022-08-17T05:30:25.940Z,99206.59
2022-08-17T05:31:01.242Z,99206.50
2022-08-17T05:31:33.505Z,99202.97
2022-08-17T05:32:38.495Z,99209.19
2022-08-17T05:33:12.047Z,99213.19
2022-08-17T05:33:46.318Z,99204.34
2022-08-17T05:34:18.377Z,99207.78
2022-08-17T05:34:50.576Z,99206.53
2022-08-17T05:35:24.019Z,99205.28
2022-08-17T05:35:58.269Z,99206.06
2022-08-17T05:36:37.843Z,99205.12
2022-08-17T05:37:16.180Z,99204.66
2022-08-17T05:37:48.053Z,99200.41
2022-08-17T05:38:21.525Z,99211.25
2022-08-17T05:38:53.425Z,99207.66
2022-08-17T05:39:25.392Z,99206.72
2022-08-17T05:39:57.694Z,99205.19
2022-08-17T05:40:32.649Z,99209.59
2022-08-17T05:41:07.601Z,99205.25
2022-08-17T05:41:39.496Z,99207.28
2022-08-17T05:42:11.386Z,99210.88
2022-08-17T05:42:43.799Z,99203.81
2022-08-17T05:43:28.702Z,99212.16
2022-08-17T05:44:00.598Z,99209.19
2022-08-17T05:44:37.479Z,99209.50
2022-08-17T05:45:11.211Z,99207.00
2022-08-17T05:45:55.727Z,99209.19
2022-08-17T05:46:35.741Z,99207.16
2022-08-17T05:47:09.937Z,99207.78
2022-08-17T05:47:44.521Z,99210.59
2022-08-17T05:48:16.594Z,99213.91
2022-08-17T05:48:53.994Z,99213.41
2022-08-17T05:49:28.637Z,99207.00
2022-08-17T05:50:02.352Z,99205.44
2022-08-17T05:50:55.773Z,99215.16
2022-08-17T05:51:55.779Z,99204.78
2022-08-17T05:53:05.482Z,99204.00
2022-08-17T05:54:00.646Z,99206.81
2022-08-17T05:54:42.416Z,99206.84
2022-08-17T05:55:50.775Z,99202.59
2022-08-17T05:56:31.781Z,99206.19
2022-08-17T05:57:09.303Z,99204.16
2022-08-17T05:58:00.130Z,99208.56
2022-08-17T05:59:00.793Z,99206.84
2022-08-17T05:59:44.819Z,99204.12
2022-08-17T06:00:30.373Z,99208.37
2022-08-17T06:01:08.451Z,99209.28
2022-08-17T06:02:08.046Z,99209.44
2022-08-17T06:03:18.857Z,99208.78
2022-08-17T06:04:16.722Z,99208.56
2022-08-17T06:05:41.239Z,99203.78
2022-08-17T06:06:16.369Z,99203.09
2022-08-17T06:07:05.699Z,99205.28
2022-08-17T06:07:57.913Z,99202.22
2022-08-17T06:08:51.743Z,99199.28
2022-08-17T06:09:36.033Z,99206.84
2022-08-17T06:10:17.180Z,99205.25
2022-08-17T06:11:23.009Z,99201.88
2022-08-17T06:11:58.931Z,99201.56
2022-08-17T06:13:01.531Z,99205.19
2022-08-17T06:13:54.738Z,99209.25
2022-08-17T06:14:44.698Z,99197.47
2022-08-17T06:15:35.952Z,99198.38
2022-08-17T06:16:33.071Z,99201.28
2022-08-17T06:17:13.457Z,99201.09
2022-08-17T06:17:45.691Z,99207.66
2022-08-17T06:18:21.013Z,99208.66
2022-08-17T06:19:01.590Z,99201.88
2022-08-17T06:19:45.815Z,99204.53
2022-08-17T06:20:17.958Z,99205.78
2022-08-17T06:21:11.951Z,99207.47
2022-08-17T06:21:51.294Z,99209.94
2022-08-17T06:22:28.220Z,99203.78
2022-08-17T06:23:08.383Z,99206.25
2022-08-17T06:23:52.371Z,99202.00
2022-08-17T06:24:37.793Z,99207.03
2022-08-17T06:25:21.561Z,99203.69
2022-08-17T06:26:03.797Z,99211.97
2022-08-17T06:26:43.018Z,99208.16
2022-08-17T06:27:46.279Z,99215.97
2022-08-17T06:28:34.337Z,99213.34
2022-08-17T06:29:18.799Z,99218.16
2022-08-17T06:29:59.164Z,99218.41
2022-08-17T06:30:59.743Z,99217.38
2022-08-17T06:31:36.784Z,99210.91
2022-08-17T06:32:12.806Z,99216.91
2022-08-17T06:32:48.100Z,99213.59
2022-08-17T06:33:38.102Z,99218.28
2022-08-17T06:34:12.165Z,99213.00
2022-08-17T06:34:45.867Z,99217.25
2022-08-17T06:35:31.960Z,99217.38
2022-08-17T06:36:26.391Z,99219.38
2022-08-17T06:37:22.544Z,99217.34
2022-08-17T06:37:57.166Z,99211.41
2022-08-17T06:38:44.374Z,99215.34
2022-08-17T06:39:31.160Z,99216.91
2022-08-17T06:40:18.448Z,99218.69
2022-08-17T06:41:03.798Z,99215.50
2022-08-17T06:41:45.773Z,99222.22
2022-08-17T06:42:55.124Z,99213.16
2022-08-17T06:43:44.062Z,99214.81
2022-08-17T06:44:52.171Z,99221.72
2022-08-17T06:45:39.058Z,99228.19
2022-08-17T06:46:33.454Z,99226.91
2022-08-17T06:47:42.532Z,99222.09
2022-08-17T06:48:27.820Z,99221.88
2022-08-17T06:49:25.882Z,99225.09
2022-08-17T06:50:20.448Z,99229.94
2022-08-17T06:51:03.386Z,99225.16
2022-08-17T06:51:40.817Z,99226.84
2022-08-17T06:52:46.611Z,99227.34
2022-08-17T06:53:48.323Z,99233.50
2022-08-17T06:54:27.352Z,99222.00
2022-08-17T06:55:09.543Z,99232.59
2022-08-17T06:56:06.108Z,99221.03
2022-08-17T06:57:14.841Z,99226.41
2022-08-17T06:57:51.744Z,99228.19
2022-08-17T06:58:29.675Z,99228.19
2022-08-17T06:59:03.938Z,99228.31
2022-08-17T06:59:54.936Z,99232.47
2022-08-17T07:00:33.813Z,99226.41
2022-08-17T07:01:23.238Z,99230.25
2022-08-17T07:01:56.463Z,99229.72
2022-08-17T07:02:52.742Z,99226.47
2022-08-17T07:03:39.630Z,99234.97
2022-08-17T07:04:19.996Z,99224.75
2022-08-17T07:04:52.616Z,99229.16
2022-08-17T07:05:38.808Z,99223.78
2022-08-17T07:06:20.793Z,99232.38
2022-08-17T07:06:58.921Z,99222.56
2022-08-17T07:07:51.884Z,99226.88
2022-08-17T07:08:50.056Z,99223.56
2022-08-17T07:09:36.008Z,99228.22
2022-08-17T07:10:09.564Z,99219.25
2022-08-17T07:10:47.714Z,99223.34
2022-08-17T07:11:27.758Z,99222.97
2022-08-17T07:12:12.025Z,99220.66
2022-08-17T07:12:46.656Z,99222.72
2022-08-17T07:13:29.661Z,99222.47
2022-08-17T07:14:18.399Z,99224.72
2022-08-17T07:15:04.518Z,99224.34
2022-08-17T07:15:42.939Z,99223.22
2022-08-17T07:16:28.928Z,99221.53
2022-08-17T07:17:08.128Z,99227.50
2022-08-17T07:17:47.421Z,99223.87
2022-08-17T07:18:20.922Z,99218.94
2022-08-17T07:18:54.658Z,99219.81
2022-08-17T07:19:32.029Z,99230.78
2022-08-17T07:20:09.021Z,99227.06
2022-08-17T07:20:46.992Z,99231.25
2022-08-17T07:21:40.847Z,99224.81
2022-08-17T07:22:59.762Z,99228.28
2022-08-17T07:24:01.457Z,99231.56
2022-08-17T07:24:53.559Z,99224.53
2022-08-17T07:25:25.867Z,99227.66